page 5383 of 1009894 registered users

eBook PostsUsers

  1. 0francebomber28 registered @ 2013-01-12 10:05:54, last login @ 2013-01-12 10:05:54
  2. 0pantrycannon23 registered @ 2013-01-12 10:06:22, last login @ 2013-01-12 10:06:22
  3. 0pikeaction94 registered @ 2013-01-12 10:09:05, last login @ 2013-01-12 10:09:05
  4. 0screen30burma registered @ 2013-01-12 10:09:28, last login @ 2013-01-12 10:09:28
  5. 0slicegrip1 registered @ 2013-01-12 10:11:09, last login @ 2013-01-12 10:23:06
  6. 0bayflare3 registered @ 2013-01-12 10:11:13, last login @ 2013-01-12 10:11:13
  7. 0pikeuse82 registered @ 2013-01-12 10:11:31, last login @ 2013-01-12 10:11:31
  8. 0loan1stone registered @ 2013-01-12 10:11:56, last login @ 2013-01-12 10:11:56
  9. 0epoch1drop registered @ 2013-01-12 10:12:21, last login @ 2013-01-12 10:12:21
  10. 0coil2actor registered @ 2013-01-12 10:13:51, last login @ 2013-01-12 10:45:53
  11. 0ghostcheek6 registered @ 2013-01-12 10:15:05, last login @ 2013-01-12 10:15:05
  12. 0secondzinc5 registered @ 2013-01-12 10:15:42, last login @ 2013-01-12 10:15:42
  13. 0karate3person registered @ 2013-01-12 10:15:44, last login @ 2013-01-12 10:15:44
  14. 0mosquejumbo1 registered @ 2013-01-12 10:16:22, last login @ 2013-01-12 10:16:22
  15. 0nickelhorse2 registered @ 2013-01-12 10:16:52, last login @ 2013-01-12 10:16:52
  16. 0beaver17feet registered @ 2013-01-12 10:17:04, last login @ 2013-01-12 10:17:04
  17. 0root6reward registered @ 2013-01-12 10:17:14, last login @ 2013-01-12 10:17:14
  18. 0jetchill7 registered @ 2013-01-12 10:17:21, last login @ 2013-01-12 10:17:21
  19. 0bonevein8 registered @ 2013-01-12 10:17:26, last login @ 2013-01-12 10:17:26
  20. 0angle4tie registered @ 2013-01-12 10:18:02, last login @ 2013-01-12 10:18:02
  21. 0form90draw registered @ 2013-01-12 10:19:28, last login @ 2013-01-12 10:19:28
  22. 0starpilot92 registered @ 2013-01-12 10:19:47, last login @ 2013-01-12 10:19:47
  23. 0debtor92edge registered @ 2013-01-12 10:19:58, last login @ 2013-01-12 10:19:58
  24. 0studybeggar40 registered @ 2013-01-12 10:20:33, last login @ 2013-01-12 10:20:33
  25. 0action5tire registered @ 2013-01-12 10:21:29, last login @ 2013-01-12 10:21:29
  26. 0taiwan4stitch registered @ 2013-01-12 10:22:06, last login @ 2013-01-12 10:22:06
  27. 0pantymanx88 registered @ 2013-01-12 10:23:15, last login @ 2013-01-12 10:23:15
  28. 0deerfiber5 registered @ 2013-01-12 10:25:43, last login @ 2013-01-12 10:25:43
  29. 0circlebirth07 registered @ 2013-01-12 10:27:43, last login @ 2013-01-12 10:27:43
  30. 0shirt9sleep registered @ 2013-01-12 10:27:45, last login @ 2013-01-12 10:27:45
  31. 0leaf4jewel registered @ 2013-01-12 10:27:59, last login @ 2013-01-12 10:27:59
  32. 0clamgeorge95 registered @ 2013-01-12 10:28:40, last login @ 2013-01-12 10:28:40
  33. 0truckshears8 registered @ 2013-01-12 10:28:52, last login @ 2013-01-12 10:28:52
  34. 0mzyfrhauj registered @ 2013-01-12 10:30:06, last login @ 2013-01-12 10:30:06
  35. 0dust2pull registered @ 2013-01-12 10:31:31, last login @ 2013-01-12 10:31:31
  36. 0drawer19pastry registered @ 2013-01-12 10:32:02, last login @ 2013-01-12 10:32:02
  37. 0fur0can registered @ 2013-01-12 10:32:28, last login @ 2013-01-12 10:32:28
  38. 0dew59iron registered @ 2013-01-12 10:33:08, last login @ 2013-01-12 10:33:08
  39. 0mouseteam37 registered @ 2013-01-12 10:34:17, last login @ 2013-01-12 10:34:17
  40. 0hivagreen registered @ 2013-01-12 10:36:22, last login @ 2013-01-12 10:36:22
  41. 0drug02colon registered @ 2013-01-12 10:36:26, last login @ 2013-01-12 10:36:26
  42. 0comicappeal59 registered @ 2013-01-12 10:38:33, last login @ 2013-01-12 10:38:33
  43. 0clam24blue registered @ 2013-01-12 10:40:40, last login @ 2013-01-12 10:40:40
  44. 0nickelrobert6 registered @ 2013-01-12 10:40:58, last login @ 2013-01-12 10:50:04
  45. 0time22peanut registered @ 2013-01-12 10:41:20, last login @ 2013-01-12 10:41:20
  46. 0mile88anime registered @ 2013-01-12 10:41:51, last login @ 2013-01-12 10:41:51
  47. 0lunchriddle3 registered @ 2013-01-12 10:42:05, last login @ 2013-01-12 10:42:05
  48. 0jeanscarrot10 registered @ 2013-01-12 10:43:19, last login @ 2013-01-12 10:43:19
  49. 0flock0goat registered @ 2013-01-12 10:43:56, last login @ 2013-01-12 10:43:56
  50. 0prose47bay registered @ 2013-01-12 10:44:46, last login @ 2013-01-12 10:44:46
  51. 0stool5cord registered @ 2013-01-12 10:45:17, last login @ 2013-01-12 10:45:17
  52. 0chain4racing registered @ 2013-01-12 10:46:14, last login @ 2013-01-12 10:46:14
  53. 0BenjaminHumphrey registered @ 2013-01-12 10:46:16, last login @ 2013-01-12 10:46:16
  54. 0syruplight38 registered @ 2013-01-12 10:47:26, last login @ 2013-01-12 10:47:26
  55. 0chillnail70 registered @ 2013-01-12 10:47:39, last login @ 2013-01-12 10:47:39
  56. 0straw37tuna registered @ 2013-01-12 10:48:03, last login @ 2013-01-12 10:48:03
  57. 0templeattic7 registered @ 2013-01-12 10:48:23, last login @ 2013-01-12 10:48:23
  58. 0weedershoe88 registered @ 2013-01-12 10:50:17, last login @ 2013-01-12 10:50:17
  59. 0vein6relish registered @ 2013-01-12 10:52:14, last login @ 2013-01-12 10:52:14
  60. 0cdant7 registered @ 2013-01-12 10:52:15, last login @ 2013-01-12 10:52:15
  61. 0buglecrib5 registered @ 2013-01-12 10:52:47, last login @ 2013-01-12 10:52:47
  62. 0secure3zipper registered @ 2013-01-12 10:53:40, last login @ 2013-01-12 10:53:40
  63. 0temple35syria registered @ 2013-01-12 10:53:42, last login @ 2013-01-12 10:53:42
  64. 0priestdavid26 registered @ 2013-01-12 10:53:52, last login @ 2013-01-12 10:53:52
  65. 0stool3cream registered @ 2013-01-12 10:55:42, last login @ 2013-01-12 10:55:42
  66. 0prisonsphynx23 registered @ 2013-01-12 10:56:03, last login @ 2013-01-12 10:56:03
  67. 0advicehelp00 registered @ 2013-01-12 10:56:48, last login @ 2013-01-12 10:56:48
  68. 0edger9cheque registered @ 2013-01-12 10:58:28, last login @ 2013-01-12 10:58:28
  69. 0sofaweeder1 registered @ 2013-01-12 10:58:29, last login @ 2013-01-12 10:58:29
  70. 0partysign8 registered @ 2013-01-12 10:59:01, last login @ 2013-01-12 10:59:01
  71. 0beersound5 registered @ 2013-01-12 10:59:30, last login @ 2013-01-12 10:59:30
  72. 0rhythmepoch5 registered @ 2013-01-12 10:59:46, last login @ 2013-01-12 10:59:46
  73. 0musicheaven29 registered @ 2013-01-12 10:59:55, last login @ 2013-01-12 10:59:55
  74. 0option45law registered @ 2013-01-12 11:00:32, last login @ 2013-01-12 11:00:32
  75. 0rabbi88effect registered @ 2013-01-12 11:01:40, last login @ 2013-01-12 11:01:40
  76. 0format6link registered @ 2013-01-12 11:01:41, last login @ 2013-01-12 11:50:52
  77. 0frost1bottom registered @ 2013-01-12 11:02:43, last login @ 2013-01-12 11:02:43
  78. 0drive42chef registered @ 2013-01-12 11:02:45, last login @ 2013-01-12 11:02:45
  79. 0colonwitch97 registered @ 2013-01-12 11:03:17, last login @ 2013-01-12 11:03:17
  80. 0atmslice0 registered @ 2013-01-12 11:04:04, last login @ 2013-01-12 11:04:04
  81. 0willowdollar0 registered @ 2013-01-12 11:04:34, last login @ 2013-01-12 11:04:34
  82. 0verse8violet registered @ 2013-01-12 11:06:19, last login @ 2013-01-12 11:06:19
  83. 0streetbreak4 registered @ 2013-01-12 11:06:48, last login @ 2013-01-12 11:06:48
  84. 0superslim1889 registered @ 2013-01-12 11:07:58, last login @ 2013-01-12 11:36:55
  85. 0oil7advice registered @ 2013-01-12 11:08:16, last login @ 2013-01-12 11:08:16
  86. 0crowdcollar4 registered @ 2013-01-12 11:08:49, last login @ 2013-01-12 11:08:49
  87. 0wirepail54 registered @ 2013-01-12 11:09:41, last login @ 2013-01-12 11:09:41
  88. 0forceoutput6 registered @ 2013-01-12 11:11:04, last login @ 2013-01-12 11:11:04
  89. 0value74second registered @ 2013-01-12 11:11:30, last login @ 2013-01-12 11:20:01
  90. 0washer8potato registered @ 2013-01-12 11:12:25, last login @ 2013-01-12 11:12:25
  91. 0italydryer36 registered @ 2013-01-12 11:12:31, last login @ 2013-01-12 11:12:31
  92. 0bush5crack registered @ 2013-01-12 11:12:44, last login @ 2013-01-12 11:12:44
  93. 0priceground33 registered @ 2013-01-12 11:13:39, last login @ 2013-01-12 11:13:39
  94. 0clockmint2 registered @ 2013-01-12 11:13:51, last login @ 2013-01-12 11:55:05
  95. 0office7ticket registered @ 2013-01-12 11:16:39, last login @ 2013-01-12 11:16:39
  96. 0quill5horn registered @ 2013-01-12 11:17:46, last login @ 2013-01-12 11:17:46
  97. 0whitebrandy9 registered @ 2013-01-12 11:18:49, last login @ 2013-01-12 11:18:49
  98. 0violetcomic65 registered @ 2013-01-12 11:19:57, last login @ 2013-01-12 11:19:57
  99. 0fire8wish registered @ 2013-01-12 11:19:58, last login @ 2013-01-12 11:19:58
  100. 0arch2kiss registered @ 2013-01-12 11:20:47, last login @ 2013-01-12 11:20:47
  101. 0motheted registered @ 2013-01-12 11:21:51, last login @ 2013-01-12 11:21:51

More...

[5393] [5392] [5391] [5390] [5389] [5388] [5387] [5386] [5385] [5384] [5383] [5382] [5381] [5380] [5379] [5378] [5377] [5376] [5375] [5374] ...[1]
Back to Top